• Join FlightAware (Why Join?)
  • Login
  • US Flag 
Gobble Gobble! 
06:20PM EST


 

Airport Tracker/Info


-or-


 

Live Flight TrackerFlight Track Log ✈ TRS1 ✈ 17-Jun-2013 ✈ KBWI - MMUN / CUN

Flight Track Log - Related Links

Times and Time Zones

All times are in EDT time to prevent confusion due to time zone crossing. See the TRS1 flight status page for this flight to view local times or setup timezone preferences in your user account.

Time Position Orientation Groundspeed Altitude Reporting Facility
EDT Latitude Longitude Course Direction KTS MPH feet Rate Location/Type
09:33AM 39.1833 -76.7667 288° West 217 250 2,700  Level Potomac TRACON
09:34AM 39.2000 -76.8333 288° West 263 303 5,500 3,420 Climbing Potomac TRACON
09:35AM 39.2167 -76.9333 282° West 261 300 8,900 3,180 Climbing Potomac TRACON
09:36AM 39.2167 -77.0333 270° West 289 333 11,600 2,580 Climbing Potomac TRACON
09:37AM 39.2000 -77.1500 260° West 342 394 14,400 2,520 Climbing Potomac TRACON
09:38AM 39.1333 -77.2167 218° Southwest 366 421 16,700 2,640 Climbing Potomac TRACON
09:39AM 39.0333 -77.3000 213° Southwest 380 437 19,500 2,520 Climbing Potomac TRACON
09:40AM 38.9500 -77.3667 212° Southwest 402 463 21,500 1,800 Climbing Potomac TRACON
09:41AM 38.8667 -77.4500 218° Southwest 415 478 23,000 720 Climbing Potomac TRACON
09:42AM 38.7667 -77.5167 207° Southwest 408 470 23,000  Level Potomac TRACON
09:43AM 38.6375 -77.6328 215° Southwest 410 472 23,000  Level Washington Center
09:44AM 38.5444 -77.7125 214° Southwest 410 472 23,000 420 Level Washington Center
09:45AM 38.4514 -77.7922 214° Southwest 405 466 23,900 1,260 Climbing Washington Center
09:46AM 38.3539 -77.8739 213° Southwest 405 466 25,500 1,020 Climbing Washington Center
09:47AM 38.2564 -77.9556 213° Southwest 416 479 26,000 240 Climbing Washington Center
09:48AM 38.1567 -78.0369 213° Southwest 422 486 26,000 480 Level Washington Center
09:49AM 38.0569 -78.1208 214° Southwest 422 486 27,000 480 Climbing Washington Center
09:50AM 37.9656 -78.2047 216° Southwest 415 478 27,000  Level Washington Center
09:51AM 37.8631 -78.3036 217° Southwest 421 484 27,000 240 Level Washington Center
09:52AM 37.7672 -78.3894 215° Southwest 421 484 27,500 840 Climbing Washington Center
09:53AM 37.6714 -78.4831 218° Southwest 426 490 28,800 1,500 Climbing Washington Center
09:54AM 37.5731 -78.5736 216° Southwest 437 503 30,600 1,320 Climbing Washington Center
09:56AM 37.4833 -78.6564 216° Southwest 442 509 31,800 1,320 Climbing Washington Center
09:57AM 37.3636 -78.7692 217° Southwest 447 514 33,600 1,740 Climbing Washington Center
09:58AM 37.2611 -78.8617 216° Southwest 452 520 35,300 1,500 Climbing Washington Center
09:59AM 37.1647 -78.9539 217° Southwest 452 520 36,700 1,260 Climbing Washington Center
10:00AM 37.0681 -79.0433 216° Southwest 441 507 37,900 660 Climbing Washington Center
10:01AM 36.9611 -79.1400 216° Southwest 441 507 38,000  Climbing Washington Center
10:02AM 36.8622 -79.2314 216° Southwest 441 507 38,000  Level Washington Center
10:03AM 36.7636 -79.3203 216° Southwest 441 507 38,000  Level Washington Center
10:04AM 36.6647 -79.4114 216° Southwest 441 507 38,000  Level Washington Center
10:05AM 36.5000 -79.5606 216° Southwest 437 503 38,000  Level Atlanta Center
10:06AM 36.4033 -79.6511 217° Southwest 437 503 38,000  Level Atlanta Center
10:07AM 36.3000 -79.7417 215° Southwest 442 509 38,000  Level Atlanta Center
10:08AM 36.2011 -79.8319 216° Southwest 442 509 38,000  Level Atlanta Center
10:09AM 36.1119 -79.9136 217° Southwest 449 517 38,000  Level Atlanta Center
10:10AM 36.0042 -79.9936 211° Southwest 449 517 38,000  Level Atlanta Center
10:11AM 35.8892 -80.0531 203° Southwest 444 511 38,000  Level Atlanta Center
10:12AM 35.7742 -80.1072 201° Southwest 449 517 38,000  Level Atlanta Center
10:13AM 35.6450 -80.1775 204° Southwest 454 522 38,000  Level Atlanta Center
10:14AM 35.5300 -80.2364 203° Southwest 454 522 38,000  Level Atlanta Center
10:15AM 35.4150 -80.2953 203° Southwest 454 522 38,000  Level Atlanta Center
10:16AM 35.2978 -80.3514 201° Southwest 449 517 38,000  Level Atlanta Center
10:18AM 35.1206 -80.4386 202° Southwest 454 522 38,000  Level Jacksonville Center
10:19AM 34.9944 -80.5031 203° Southwest 454 522 38,000  Level Jacksonville Center
10:20AM 34.8747 -80.5622 202° Southwest 454 522 38,000  Level Jacksonville Center
10:21AM 34.7672 -80.6181 203° Southwest 443 510 38,000  Level Jacksonville Center
10:22AM 34.6492 -80.6717 200° South 443 510 38,000  Level Jacksonville Center
10:23AM 34.5294 -80.7303 202° Southwest 463 533 38,000  Level Jacksonville Center
10:24AM 34.4136 -80.7883 202° Southwest 452 520 38,000  Level Jacksonville Center
10:25AM 34.2975 -80.8442 202° Southwest 452 520 38,000  Level Jacksonville Center
10:26AM 34.1878 -80.8994 203° Southwest 438 504 38,000  Level Jacksonville Center
10:27AM 34.0700 -80.9572 202° Southwest 443 510 38,000  Level Jacksonville Center
10:28AM 33.9517 -81.0125 201° Southwest 456 525 38,000  Level Jacksonville Center
10:29AM 33.8439 -81.0597 200° South 456 525 38,000  Level Jacksonville Center
10:30AM 33.7136 -81.1297 204° Southwest 461 531 38,000  Level Jacksonville Center
10:31AM 33.5975 -81.1869 202° Southwest 467 537 38,000  Level Jacksonville Center
10:32AM 33.4772 -81.2442 202° Southwest 467 537 38,000  Level Jacksonville Center
10:33AM 33.3611 -81.3033 203° Southwest 467 537 38,000  Level Jacksonville Center
10:34AM 33.2553 -81.3525 201° Southwest 462 532 38,000  Level Jacksonville Center
10:35AM 33.1389 -81.4092 202° Southwest 462 532 38,000  Level Jacksonville Center
10:36AM 33.0228 -81.4656 202° Southwest 456 525 38,000  Level Jacksonville Center
10:37AM 32.9044 -81.5244 203° Southwest 451 519 38,000  Level Jacksonville Center
10:38AM 32.7903 -81.5803 202° Southwest 457 526 38,000  Level Jacksonville Center
10:39AM 32.6781 -81.6364 203° Southwest 452 520 38,000  Level Jacksonville Center
10:40AM 32.5492 -81.6972 202° Southwest 452 520 38,000  Level Jacksonville Center
10:41AM 32.4411 -81.7478 202° Southwest 452 520 38,000  Level Jacksonville Center
10:42AM 32.3081 -81.8086 201° Southwest 452 520 38,000  Level Jacksonville Center
10:43AM 32.1872 -81.8517 197° South 460 529 38,000  Level Jacksonville Center
10:44AM 32.0769 -81.8972 199° South 460 529 38,000  Level Jacksonville Center
10:45AM 31.9439 -81.9475 198° South 466 536 38,000  Level Jacksonville Center
10:46AM 31.8356 -81.9878 198° South 461 531 38,000  Level Jacksonville Center
10:47AM 31.7044 -82.0403 199° South 461 531 38,000  Level Jacksonville Center
10:48AM 31.5961 -82.0878 200° South 461 531 38,000  Level Jacksonville Center
10:49AM 31.4772 -82.1325 198° South 461 531 38,000  Level Jacksonville Center
10:50AM 31.3586 -82.1772 198° South 455 524 38,000  Level Jacksonville Center
10:51AM 31.2419 -82.2219 198° South 450 518 38,000  Level Jacksonville Center
10:52AM 31.1211 -82.2689 198° South 450 518 38,000 420 Level Jacksonville Center
10:53AM 31.0003 -82.3158 198° South 455 524 38,900 480 Climbing Jacksonville Center
10:54AM 30.8814 -82.3600 198° South 455 524 39,000  Climbing Jacksonville Center
10:55AM 30.7606 -82.4042 197° South 455 524 39,000  Level Jacksonville Center
10:56AM 30.6375 -82.4508 198° South 460 529 39,000  Level Jacksonville Center
10:57AM 30.5186 -82.4972 199° South 460 529 39,000  Level Jacksonville Center
10:58AM 30.3850 -82.5483 198° South 466 536 39,000  Level Jacksonville Center
10:59AM 30.2642 -82.5919 197° South 466 536 39,000  Level Jacksonville Center
11:00AM 30.1453 -82.6381 199° South 461 531 39,000  Level Jacksonville Center
11:01AM 30.0283 -82.6767 196° South 455 524 39,000  Level Jacksonville Center
11:02AM 29.9011 -82.7297 200° South 471 542 39,000  Level Jacksonville Center
11:03AM 29.7800 -82.7731 197° South 465 535 39,000  Level Jacksonville Center
11:04AM 29.6589 -82.8208 199° South 456 525 39,000  Level Jacksonville Center
11:05AM 29.5378 -82.8639 197° South 461 531 39,000  Level Jacksonville Center
11:06AM 29.4294 -82.8997 196° South 456 525 39,000  Level Jacksonville Center
11:07AM 29.3083 -82.9450 198° South 456 525 39,000  Level Jacksonville Center
11:08AM 29.1872 -82.9900 198° South 461 531 39,000  Level Jacksonville Center
11:09AM 29.0681 -83.0350 198° South 461 531 39,000  Level Jacksonville Center
11:10AM 28.9469 -83.0800 198° South 461 531 39,000  Level Jacksonville Center
11:12AM 28.7103 -83.1669 198° South 471 542 39,000  Level Miami Center
11:13AM 28.5917 -83.2100 198° South 465 535 39,000  Level Miami Center
11:14AM 28.4731 -83.2550 198° South 460 529 39,000  Level Miami Center
11:15AM 28.3503 -83.2975 197° South 460 529 39,000  Level Miami Center
11:16AM 28.2292 -83.3447 199° South 460 529 39,000  Level Miami Center
11:17AM 28.1083 -83.3872 197° South 460 529 39,000 -60 Level Miami Center
11:18AM 27.9911 -83.4414 202° Southwest 455 524 38,900 -600 Descending Miami Center
11:19AM 27.9092 -83.5472 229° Southwest 444 511 37,900 -480 Descending Miami Center
11:20AM 27.8269 -83.6572 230° Southwest 443 510 38,000  Climbing Miami Center
11:21AM 27.7447 -83.7625 229° Southwest 456 525 38,000  Level Miami Center
11:22AM 27.6667 -83.8678 230° Southwest 456 525 38,000  Level Miami Center
11:24AM 27.5008 -84.0958 231° Southwest 444 511 38,000  Level Houston Center
11:25AM 27.4211 -84.2000 229° Southwest 442 509 38,000  Level Houston Center
11:26AM 27.3408 -84.3061 230° Southwest 444 511 38,000  Level Houston Center
11:27AM 27.2631 -84.4108 230° Southwest 441 507 38,000  Level Houston Center
11:28AM 27.1669 -84.5358 229° Southwest 439 505 38,000  Level Houston Center
11:29AM 27.0883 -84.6386 229° Southwest 435 501 38,000  Level Houston Center
11:30AM 27.0100 -84.7411 229° Southwest 434 499 38,000  Level Houston Center
11:31AM 26.9319 -84.8439 230° Southwest 434 499 38,000  Level Houston Center
11:32AM 26.8539 -84.9458 229° Southwest 432 497 38,000  Level Houston Center
11:33AM 26.7758 -85.0472 229° Southwest 430 495 38,000  Level Houston Center
11:34AM 26.6819 -85.1694 229° Southwest 432 497 38,000  Level Houston Center
11:35AM 26.6039 -85.2700 229° Southwest 429 494 38,000  Level Houston Center
11:36AM 26.5244 -85.3711 229° Southwest 433 498 38,000  Level Houston Center
11:37AM 26.4467 -85.4736 230° Southwest 434 499 38,000  Level Houston Center
11:38AM 26.3675 -85.5753 229° Southwest 435 501 38,000  Level Houston Center
11:39AM 26.2722 -85.6969 229° Southwest 434 499 38,000  Level Houston Center
11:40AM 26.1928 -85.7983 229° Southwest 435 501 38,000  Level Houston Center
11:41AM 26.1142 -85.8981 229° Southwest 430 495 38,000  Level Houston Center
11:43AM 25.9906 -86.0217 222° Southwest 430 495 38,000  Level Houston Center
11:45AM 25.8236 -86.1068 212° Southwest  Level FlightAware Approximate
11:52AM 25.1225 -86.5802 211° Southwest  Level FlightAware Approximate
11:53AM 25.0220 -86.6469 211° Southwest  Level FlightAware Approximate
11:54AM 24.9214 -86.7135 211° Southwest  Level FlightAware Approximate
11:55AM 24.8208 -86.7800 211° Southwest  Level FlightAware Approximate
11:56AM 24.7202 -86.8464 211° Southwest  Level FlightAware Approximate
11:57AM 24.6196 -86.9127 211° Southwest  Level FlightAware Approximate
11:58AM 24.5189 -86.9789 211° Southwest  Level FlightAware Approximate
11:59AM 24.4182 -87.0450 211° Southwest  Level FlightAware Approximate
12:00PM 24.3175 -87.1110 211° Southwest  Level FlightAware Approximate
12:01PM 24.2198 -87.1821 215° Southwest  Level FlightAware Approximate
12:02PM 24.1237 -87.2559 215° Southwest  Level FlightAware Approximate
12:03PM 24.0276 -87.3295 215° Southwest  Level FlightAware Approximate
12:04PM 23.9314 -87.4030 215° Southwest  Level FlightAware Approximate
12:05PM 23.8352 -87.4764 215° Southwest  Level FlightAware Approximate
12:06PM 23.7390 -87.5497 215° Southwest  Level FlightAware Approximate
12:07PM 23.6429 -87.6232 215° Southwest  Level FlightAware Approximate
12:08PM 23.5469 -87.6966 215° Southwest  Level FlightAware Approximate
12:09PM 23.4508 -87.7700 215° Southwest  Level FlightAware Approximate
12:10PM 23.3461 -87.7397 155° Southeast  Level FlightAware Approximate
12:11PM 23.2326 -87.7097 160° South  Level FlightAware Approximate
12:12PM 23.1226 -87.6655 160° South  Level FlightAware Approximate
12:13PM 23.0125 -87.6215 160° South  Level FlightAware Approximate
12:14PM 22.9024 -87.5775 160° South  Level FlightAware Approximate
12:15PM 22.7923 -87.5335 160° South  Level FlightAware Approximate
12:16PM 22.6854 -87.4854 137° Southeast  Level FlightAware Approximate
12:17PM 22.5758 -87.4409 161° South  Level FlightAware Approximate
12:18PM 22.4649 -87.3994 163° South  Level FlightAware Approximate
12:19PM 22.3528 -87.3620 163° South  Level FlightAware Approximate
12:20PM 22.2407 -87.3247 163° South  Level FlightAware Approximate
12:21PM 22.1299 -87.2832 160° South  Level FlightAware Approximate
12:22PM 22.0194 -87.2407 160° South  Level FlightAware Approximate
12:23PM 21.9089 -87.1982 160° South  Level FlightAware Approximate
12:24PM 21.7984 -87.1558 160° South  Level FlightAware Approximate
12:25PM 21.6858 -87.1207 164° South  Level FlightAware Approximate
12:26PM 21.5784 -87.0755 161° South  Level FlightAware Approximate
12:27PM 21.4673 -87.0351 161° South  Level FlightAware Approximate
12:28PM 21.3557 -86.9963 163° South  Level FlightAware Approximate
12:29PM 21.2437 -86.9590 163° South  Level FlightAware Approximate
12:30PM 21.1344 -86.9138 160° South  Level FlightAware Approximate
12:31PM 21.0365 -86.8771 160° South  Level Estimated
12:32PM 21.0365 -86.8771 160° South  Level Estimated
12:33PM 21.0365 -86.8771 160° South  Level Estimated
12:34PM 21.0365 -86.8771 160° South  Level Estimated
12:35PM 21.0365 -86.8771 160° South  Level Estimated
12:36PM 21.0365 -86.8771 160° South  Level Estimated
12:37PM 21.0365 -86.8771 160° South  Level Estimated
12:38PM 21.0365 -86.8771 160° South  Level Estimated
12:39PM 21.0365 -86.8771 160° South  Level Estimated
12:40PM 21.0365 -86.8771 160° South  Level Estimated
12:41PM 21.0365 -86.8771 160° South  Level Estimated
12:42PM 21.0365 -86.8771 160° South  Level Estimated
12:43PM 21.0365 -86.8771 160° South  Level Estimated
12:44PM 21.0365 -86.8771 160° South  Level Estimated
12:45PM 21.0365 -86.8771 160° South  Level Estimated
12:46PM 21.0365 -86.8771 160° South  Level Estimated
12:47PM 21.0365 -86.8771 160° South  Level Estimated
12:48PM 21.0365 -86.8771 160° South  Level Estimated
12:49PM 21.0365 -86.8771 160° South  Level Estimated
12:50PM 21.0365 -86.8771 160° South  Level Estimated
12:51PM 21.0365 -86.8771 160° South  Level Estimated
12:52PM 21.0365 -86.8771 160° South  Level Estimated
12:53PM 21.0365 -86.8771 160° South  Level Estimated
12:54PM 21.0365 -86.8771 160° South  Level Estimated